createdAt,value
2019-01-13T17:33:24.488Z,8.60
2019-01-13T17:38:28.715Z,8.50
2019-01-13T17:43:32.932Z,8.60
2019-01-13T17:48:37.200Z,8.50
2019-01-13T17:53:41.523Z,8.40
2019-01-13T17:58:45.796Z,8.50
2019-01-13T18:03:50.100Z,8.30
2019-01-13T18:08:54.523Z,8.30
2019-01-13T18:13:58.881Z,8.20
2019-01-13T18:19:03.108Z,8.30
2019-01-13T18:24:07.346Z,8.20
2019-01-13T18:29:11.553Z,8.20
2019-01-13T18:34:15.831Z,8.30
2019-01-13T18:39:20.197Z,8.10
2019-01-13T18:44:24.485Z,8.10
2019-01-13T18:49:28.733Z,8.20
2019-01-13T18:54:33.055Z,8.30
2019-01-13T18:59:37.276Z,8.20
2019-01-13T19:04:41.562Z,8.20
2019-01-13T19:09:45.752Z,8.10
2019-01-13T19:14:58.778Z,8.20
2019-01-13T19:20:25.140Z,8.30
2019-01-13T19:25:33.994Z,8.10
2019-01-13T19:30:38.214Z,8.20
2019-01-13T19:35:42.612Z,8.00
2019-01-13T19:40:46.973Z,8.00
2019-01-13T19:45:51.224Z,8.00
2019-01-13T19:50:55.622Z,7.80
2019-01-13T19:55:59.908Z,7.80
2019-01-13T20:01:04.336Z,7.80
2019-01-13T20:06:08.546Z,7.80
2019-01-13T20:11:12.936Z,7.80
2019-01-13T20:16:17.197Z,7.90
2019-01-13T20:21:21.496Z,7.80
2019-01-13T20:26:25.746Z,7.80
2019-01-13T20:31:30.052Z,8.00
2019-01-13T20:36:34.261Z,7.90
2019-01-13T20:41:38.636Z,7.90
2019-01-13T20:46:42.925Z,7.90
2019-01-13T20:51:47.256Z,7.90
2019-01-13T20:56:51.781Z,7.90
2019-01-13T21:01:55.981Z,7.80
2019-01-13T21:07:00.217Z,7.90
2019-01-13T21:12:04.860Z,7.90
2019-01-13T21:17:09.164Z,8.00
2019-01-13T21:22:13.346Z,7.90
2019-01-13T21:27:17.647Z,7.90
2019-01-13T21:32:23.479Z,8.00
2019-01-13T21:37:27.731Z,7.90
2019-01-13T21:42:31.912Z,7.70
2019-01-13T21:47:36.335Z,7.80
2019-01-13T21:52:40.700Z,7.90
2019-01-13T21:57:45.005Z,7.80
2019-01-13T22:02:49.556Z,7.90
2019-01-13T22:07:53.935Z,7.90
2019-01-13T22:12:58.135Z,7.90
2019-01-13T22:18:02.443Z,7.80
2019-01-13T22:23:06.642Z,7.80
2019-01-13T22:28:10.860Z,7.80
2019-01-13T22:33:15.119Z,7.70
2019-01-13T22:38:19.360Z,7.80
2019-01-13T22:43:23.660Z,7.80
2019-01-13T22:48:27.888Z,7.90
2019-01-13T22:53:32.198Z,7.80
2019-01-13T22:58:36.484Z,7.80
2019-01-13T23:03:40.944Z,7.60
2019-01-13T23:08:45.132Z,7.60
2019-01-13T23:13:49.312Z,7.60
2019-01-13T23:18:53.996Z,7.70
2019-01-13T23:23:58.212Z,7.70
2019-01-13T23:29:02.451Z,7.70
2019-01-13T23:34:06.644Z,7.60
2019-01-13T23:39:10.804Z,7.60
2019-01-13T23:44:14.987Z,7.50
2019-01-13T23:49:19.501Z,7.60
2019-01-13T23:54:23.683Z,7.50
2019-01-13T23:59:27.880Z,7.40
